UDYZ/EVN METAR and TAF weather

Enter ICAO airport designator
Station Type Date Time Source
UDYZ METAR 2022/01/27 23:30 UTC NOAA

UDYZ 272330Z 21001KT 9999 BKN017 M01/M07 Q1015 R09/010070 NOSIG


Station Type Date Time Source
UDYZ Decoded METAR 2022/01/27 23:30 UTC NOAA

Station name not available
Jan 27, 2022 - 06:30 PM EST / 2022.01.27 2330 UTC
Wind: from the SSW (210 degrees) at 1 MPH (1 KT):0
Visibility: greater than 7 mile(s):0
Sky conditions: mostly cloudy
Temperature: 30 F (-1 C)
Dew Point: 19 F (-7 C)
Relative Humidity: 63%
Pressure (altimeter): 29.97 in. Hg (1015 hPa)
ob: UDYZ 272330Z 21001KT 9999 BKN017 M01/M07 Q1015 R09/010070 NOSIG
cycle: 23

Station Type Date Time Source
UDYZ TAF 2022/01/27 18:00 UTC NOAA

TAF UDYZ 271700Z 2718/2818 VRB04KT 6000 SCT040
TEMPO 2718/2806 2000 BR

Example: see airport list